Portada
METAR-TAF:

METAR-TAF

Aeropuertos :

Pamplona, España

Aeropuerto de Pamplona

latitud: 42-46N, longitud: 001-38W, altitud: 459 m

Observación

El informe se hizo hace 22 minutos, a las 11:00 UTC
Viento 1 kt con dirección variable
Temperatura 14°C
Humedad 51%
Presión 1017 hPa
Visibilidad 10 km o más
Cielo nuboso a una altura de 5800 ft

METAR: LEPP 231100Z VRB01KT 9999 BKN058 14/04 Q1017

Hora: 12:22 (11:22 UTC)

Pronóstico

El informe se hizo hace 3 horas y 22 minutos, a las 08:00 UTC
Pronóstico válido del 23 a las 09 UTC al 24 a las 09 UTC
Viento 5 kt del sur-sureste
Visibilidad 10 km o más
sin nubes por debajo de 1500 m y sin presencia de cumulonimbus.
Probabilidad 40% :
Temporalmente
del 24 a las 00 UTC al 24 a las 06 UTC
lluvia

TAF: LEPP 230800Z 2309/2409 16005KT CAVOK TX18/2313Z TN06/2407Z PROB40 TEMPO 2400/2406 RA

Observaciones y pronósticos meteorológicos de más de 4000 aeropuertos (mensajes METAR y TAF).

Los puntos amarillos y rojos representan las estaciones disponibles.

Ponga el ratón en el punto deseado para ver el nombre de la estación.

Haga clic para ver las observaciones y los pronósticos meteorológicos.

Para cambiar el mapa : haga clic en los botones verdes con una cruz de color negro para hacer un zoom, en el botón verde con un guión para alejar o en las flechas verdes para mapas adyacentes.


METAR-TAF: